Time;durP1;ratioP1;P1;durP2;ratioP2;P2;SDS_P1;SDS_P2;PMS_P1;PMS_P2;Temp;Humidity;BMP_temperature;BMP_pressure;BME280_temperature;BME280_humidity;BME280_pressure;Samples;Min_cycle;Max_cycle;Signal;HPM_P1;HPM_P2
2021/11/27 00:00:46;;;;;;;;;;;5.10;56.30;;;;;;4361265;32;19978;-47
2021/11/27 00:03:13;;;;;;;;;;;5.20;56.20;;;;;;4374888;32;20378;-48
2021/11/27 00:05:39;;;;;;;;;;;5.20;56.10;;;;;;4375162;32;19962;-48
2021/11/27 00:08:06;;;;;;;;;;;5.20;56.00;;;;;;4375578;32;20061;-51
2021/11/27 00:10:33;;;;;;;;;;;5.30;55.90;;;;;;4375805;32;19977;-48
2021/11/27 00:12:59;;;;;;;;;;;5.30;55.70;;;;;;4374977;32;19982;-53
2021/11/27 00:15:25;;;;;;;;;;;5.30;55.70;;;;;;4375021;32;20390;-53
2021/11/27 00:17:52;;;;;;;;;;;5.40;55.50;;;;;;4374907;32;19973;-50
2021/11/27 00:20:23;;;;;;;;;;;5.40;55.40;;;;;;4368690;32;20386;-48
2021/11/27 00:22:49;;;;;;;;;;;5.40;55.40;;;;;;4360178;32;19969;-48
2021/11/27 00:25:16;;;;;;;;;;;5.40;55.60;;;;;;4359963;32;19972;-52
2021/11/27 00:27:42;;;;;;;;;;;5.40;55.80;;;;;;4359882;32;19974;-49
2021/11/27 00:30:11;;;;;;;;;;;5.50;55.90;;;;;;4345873;32;19983;-53
2021/11/27 00:32:37;;;;;;;;;;;5.50;55.90;;;;;;4359755;32;20420;-53
2021/11/27 00:35:04;;;;;;;;;;;5.50;55.90;;;;;;4359509;32;20382;-50
2021/11/27 00:37:30;;;;;;;;;;;5.60;56.00;;;;;;4359799;32;19970;-51
2021/11/27 00:39:56;;;;;;;;;;;5.60;56.00;;;;;;4359368;32;20459;-50
2021/11/27 00:42:23;;;;;;;;;;;5.70;56.10;;;;;;4359797;32;19958;-51
2021/11/27 00:44:49;;;;;;;;;;;5.70;55.90;;;;;;4359778;32;20053;-49
2021/11/27 00:47:15;;;;;;;;;;;5.60;55.90;;;;;;4359933;32;19997;-50
2021/11/27 00:49:41;;;;;;;;;;;5.70;55.90;;;;;;4359221;32;19973;-52
2021/11/27 00:52:08;;;;;;;;;;;5.60;56.00;;;;;;4359651;32;19982;-48
2021/11/27 00:54:34;;;;;;;;;;;5.70;56.20;;;;;;4359149;32;20415;-50
2021/11/27 00:57:00;;;;;;;;;;;5.70;56.30;;;;;;4359497;32;19978;-44
2021/11/27 00:59:26;;;;;;;;;;;5.70;56.30;;;;;;4359317;32;19973;-53
2021/11/27 01:01:52;;;;;;;;;;;5.70;57.00;;;;;;4359464;32;19993;-42
2021/11/27 01:04:19;;;;;;;;;;;5.60;56.50;;;;;;4359037;32;20043;-48
2021/11/27 01:06:45;;;;;;;;;;;5.60;56.70;;;;;;4359011;32;20001;-50
2021/11/27 01:09:13;;;;;;;;;;;5.60;56.90;;;;;;4358968;32;19958;-47
2021/11/27 01:11:46;;;;;;;;;;;5.60;57.00;;;;;;4359266;32;20037;-51
2021/11/27 01:14:18;;;;;;;;;;;5.50;57.00;;;;;;4359403;32;20052;-51
2021/11/27 01:16:46;;;;;;;;;;;5.50;57.20;;;;;;4359522;32;19994;-50
2021/11/27 01:19:12;;;;;;;;;;;5.40;57.30;;;;;;4358966;32;20054;-52
2021/11/27 01:21:43;;;;;;;;;;;5.40;57.40;;;;;;4373189;32;19986;-47
2021/11/27 01:24:11;;;;;;;;;;;5.40;57.60;;;;;;4374107;32;19993;-48
2021/11/27 01:26:38;;;;;;;;;;;5.30;57.70;;;;;;4373891;32;19974;-50
2021/11/27 01:29:05;;;;;;;;;;;5.30;57.90;;;;;;4374011;32;19966;-46
2021/11/27 01:31:31;;;;;;;;;;;5.30;58.10;;;;;;4360060;32;19962;-50
2021/11/27 01:33:58;;;;;;;;;;;5.20;58.20;;;;;;4373716;32;19993;-45
2021/11/27 01:36:24;;;;;;;;;;;5.20;58.50;;;;;;4374276;32;19966;-48
2021/11/27 01:38:50;;;;;;;;;;;5.20;58.60;;;;;;4373795;32;19977;-50
2021/11/27 01:41:17;;;;;;;;;;;5.20;58.70;;;;;;4373521;32;19965;-51
2021/11/27 01:43:44;;;;;;;;;;;5.20;58.80;;;;;;4373182;32;20535;-48
2021/11/27 01:46:10;;;;;;;;;;;5.20;58.90;;;;;;4374054;32;20359;-46
2021/11/27 01:48:38;;;;;;;;;;;5.10;58.90;;;;;;4373383;32;19970;-49
2021/11/27 01:51:13;;;;;;;;;;;5.20;59.10;;;;;;4373407;32;19962;-48
2021/11/27 01:53:43;;;;;;;;;;;5.10;59.70;;;;;;4373607;32;19978;-48
2021/11/27 01:56:12;;;;;;;;;;;5.10;59.30;;;;;;4373742;32;19970;-47
2021/11/27 01:58:39;;;;;;;;;;;5.10;59.30;;;;;;4373833;32;19985;-48
2021/11/27 02:01:08;;;;;;;;;;;5.10;59.40;;;;;;4373339;32;19959;-48
2021/11/27 02:03:34;;;;;;;;;;;5.10;59.40;;;;;;4373477;32;20021;-48
2021/11/27 02:06:01;;;;;;;;;;;5.10;59.40;;;;;;4373768;32;19977;-48
2021/11/27 02:08:28;;;;;;;;;;;5.00;59.40;;;;;;4359700;32;19970;-41
2021/11/27 02:10:54;;;;;;;;;;;5.00;59.40;;;;;;4373548;32;20001;-40
2021/11/27 02:13:20;;;;;;;;;;;5.00;59.30;;;;;;4373775;32;19962;-52
2021/11/27 02:15:46;;;;;;;;;;;5.00;59.30;;;;;;4373641;32;19968;-47
2021/11/27 02:18:13;;;;;;;;;;;5.00;59.30;;;;;;4373306;32;20464;-45
2021/11/27 02:20:41;;;;;;;;;;;5.00;59.30;;;;;;4364732;32;19966;-42
2021/11/27 02:23:07;;;;;;;;;;;4.90;59.50;;;;;;4358168;32;19974;-46
2021/11/27 02:25:34;;;;;;;;;;;4.90;59.20;;;;;;4358414;32;19985;-47
2021/11/27 02:28:00;;;;;;;;;;;5.00;59.30;;;;;;4358340;32;19981;-47
2021/11/27 02:30:26;;;;;;;;;;;5.00;59.30;;;;;;4332053;32;20407;-43
2021/11/27 02:32:53;;;;;;;;;;;5.00;59.10;;;;;;4358490;32;19955;-44
2021/11/27 02:35:19;;;;;;;;;;;5.00;59.10;;;;;;4358535;32;20571;-44
2021/11/27 02:37:45;;;;;;;;;;;5.00;59.20;;;;;;4358554;32;19981;-43
2021/11/27 02:40:12;;;;;;;;;;;5.00;59.10;;;;;;4358017;32;20458;-45
2021/11/27 02:42:39;;;;;;;;;;;5.00;59.00;;;;;;4357863;32;19971;-45
2021/11/27 02:45:05;;;;;;;;;;;5.00;59.00;;;;;;4344672;32;19970;-45
2021/11/27 02:47:32;;;;;;;;;;;5.00;59.00;;;;;;4358254;32;19973;-46
2021/11/27 02:50:01;;;;;;;;;;;5.00;58.80;;;;;;4358510;32;19969;-46
2021/11/27 02:52:29;;;;;;;;;;;5.00;58.80;;;;;;4358707;32;20000;-46
2021/11/27 02:54:58;;;;;;;;;;;5.00;58.60;;;;;;4360148;32;19986;-40
2021/11/27 02:57:25;;;;;;;;;;;5.00;58.50;;;;;;4361139;32;20407;-46
2021/11/27 02:59:51;;;;;;;;;;;5.00;58.30;;;;;;4361375;32;20460;-44
2021/11/27 03:02:17;;;;;;;;;;;5.00;58.30;;;;;;4360657;32;20095;-39
2021/11/27 03:04:48;;;;;;;;;;;5.00;58.20;;;;;;4360828;32;19970;-45
2021/11/27 03:07:15;;;;;;;;;;;5.00;58.20;;;;;;4360724;32;20005;-46
2021/11/27 03:09:41;;;;;;;;;;;5.00;58.20;;;;;;4361334;32;19967;-48
2021/11/27 03:12:08;;;;;;;;;;;5.00;58.20;;;;;;4360805;32;19970;-43
2021/11/27 03:14:34;;;;;;;;;;;4.90;58.10;;;;;;4360514;32;20360;-43
2021/11/27 03:17:00;;;;;;;;;;;4.90;58.20;;;;;;4361115;32;20407;-45
2021/11/27 03:19:30;;;;;;;;;;;5.00;58.30;;;;;;4361663;32;20375;-43
2021/11/27 03:21:57;;;;;;;;;;;5.00;58.30;;;;;;4375791;32;19995;-42
2021/11/27 03:24:23;;;;;;;;;;;5.00;58.30;;;;;;4375782;32;20399;-45
2021/11/27 03:26:50;;;;;;;;;;;5.00;58.30;;;;;;4375805;32;20009;-45
2021/11/27 03:29:16;;;;;;;;;;;4.90;58.10;;;;;;4375314;32;19991;-43
2021/11/27 03:31:42;;;;;;;;;;;4.90;58.10;;;;;;4375569;32;19954;-46
2021/11/27 03:34:08;;;;;;;;;;;4.90;58.10;;;;;;4375517;32;19976;-45
2021/11/27 03:36:35;;;;;;;;;;;4.90;58.10;;;;;;4375534;32;19966;-45
2021/11/27 03:39:02;;;;;;;;;;;4.90;58.10;;;;;;4375409;32;20422;-45
2021/11/27 03:41:28;;;;;;;;;;;4.90;58.10;;;;;;4376178;32;19972;-43
2021/11/27 03:43:55;;;;;;;;;;;4.80;58.10;;;;;;4375481;32;19966;-47
2021/11/27 03:46:21;;;;;;;;;;;4.80;58.10;;;;;;4374933;32;19969;-44
2021/11/27 03:48:48;;;;;;;;;;;4.80;58.10;;;;;;4374874;32;20008;-45
2021/11/27 03:51:17;;;;;;;;;;;4.80;58.10;;;;;;4361247;32;20018;-44
2021/11/27 03:53:44;;;;;;;;;;;4.70;58.70;;;;;;4375315;32;20054;-47
2021/11/27 03:56:12;;;;;;;;;;;4.80;58.20;;;;;;4375424;32;19984;-50
2021/11/27 03:58:38;;;;;;;;;;;4.80;58.30;;;;;;4375263;32;19969;-44
2021/11/27 04:01:07;;;;;;;;;;;4.80;58.30;;;;;;4374919;32;19977;-46
2021/11/27 04:03:33;;;;;;;;;;;4.80;58.30;;;;;;4374768;32;20370;-37
2021/11/27 04:06:00;;;;;;;;;;;4.70;58.20;;;;;;4374538;32;20049;-43
2021/11/27 04:08:26;;;;;;;;;;;4.70;58.30;;;;;;4375123;32;19967;-46
2021/11/27 04:10:53;;;;;;;;;;;4.70;58.40;;;;;;4374994;32;19996;-44
2021/11/27 04:13:19;;;;;;;;;;;4.70;58.50;;;;;;4374865;32;20074;-45
2021/11/27 04:15:45;;;;;;;;;;;4.70;58.60;;;;;;4375058;32;19961;-45
2021/11/27 04:18:13;;;;;;;;;;;4.60;58.40;;;;;;4374608;32;20041;-44
2021/11/27 04:20:39;;;;;;;;;;;4.70;58.40;;;;;;4365960;32;19977;-46
2021/11/27 04:23:06;;;;;;;;;;;4.70;58.40;;;;;;4345827;32;20059;-43
2021/11/27 04:25:32;;;;;;;;;;;4.60;58.40;;;;;;4359754;32;20068;-44
2021/11/27 04:27:58;;;;;;;;;;;4.70;58.50;;;;;;4359810;32;19982;-44
2021/11/27 04:30:26;;;;;;;;;;;4.70;58.50;;;;;;4359870;32;20086;-45
2021/11/27 04:32:53;;;;;;;;;;;4.70;58.40;;;;;;4359696;32;19974;-47
2021/11/27 04:35:20;;;;;;;;;;;4.70;58.30;;;;;;4359419;32;20419;-46
2021/11/27 04:37:47;;;;;;;;;;;4.70;58.20;;;;;;4359685;32;19959;-47
2021/11/27 04:40:14;;;;;;;;;;;4.70;58.10;;;;;;4359619;32;20013;-47
2021/11/27 04:42:40;;;;;;;;;;;4.70;58.20;;;;;;4359581;32;20063;-46
2021/11/27 04:45:07;;;;;;;;;;;4.70;58.10;;;;;;4359194;32;20401;-43
2021/11/27 04:47:33;;;;;;;;;;;4.80;58.30;;;;;;4359675;32;19997;-46
2021/11/27 04:50:00;;;;;;;;;;;4.80;58.30;;;;;;4345919;32;19974;-48
2021/11/27 04:52:26;;;;;;;;;;;4.80;58.10;;;;;;4359524;32;20362;-46
2021/11/27 04:54:52;;;;;;;;;;;4.80;58.10;;;;;;4358935;32;19974;-48
2021/11/27 04:57:18;;;;;;;;;;;4.80;58.10;;;;;;4359290;32;20029;-45
2021/11/27 04:59:45;;;;;;;;;;;4.80;58.00;;;;;;4359376;32;20074;-45
2021/11/27 05:02:11;;;;;;;;;;;4.80;58.10;;;;;;4359473;32;19986;-45
2021/11/27 05:04:38;;;;;;;;;;;4.80;58.00;;;;;;4333323;32;19971;-43
2021/11/27 05:07:05;;;;;;;;;;;4.90;58.10;;;;;;4358848;32;19992;-44
2021/11/27 05:09:31;;;;;;;;;;;4.90;58.10;;;;;;4358945;32;20466;-42
2021/11/27 05:11:57;;;;;;;;;;;4.90;58.10;;;;;;4359420;32;19997;-41
2021/11/27 05:14:24;;;;;;;;;;;4.90;58.20;;;;;;4359340;32;19963;-43
2021/11/27 05:16:50;;;;;;;;;;;4.90;58.10;;;;;;4358967;32;20447;-43
2021/11/27 05:19:16;;;;;;;;;;;4.90;58.10;;;;;;4357957;32;19983;-43
2021/11/27 05:21:42;;;;;;;;;;;4.90;58.00;;;;;;4330113;33;20043;-42
2021/11/27 05:24:09;;;;;;;;;;;5.00;58.00;;;;;;4343859;33;19970;-41
2021/11/27 05:26:35;;;;;;;;;;;5.00;58.00;;;;;;4330782;33;19966;-44
2021/11/27 05:29:02;;;;;;;;;;;5.00;58.00;;;;;;4343942;32;20374;-46
2021/11/27 05:31:28;;;;;;;;;;;5.00;58.10;;;;;;4344362;32;20073;-46
2021/11/27 05:36:23;;;;;;;;;;;5.00;58.20;;;;;;4343755;33;20378;-50
2021/11/27 05:38:49;;;;;;;;;;;5.10;58.30;;;;;;4330425;33;19978;-55
2021/11/27 05:41:16;;;;;;;;;;;5.10;58.30;;;;;;4330202;33;19958;-44
2021/11/27 05:43:42;;;;;;;;;;;5.20;58.30;;;;;;4343991;33;20451;-49
2021/11/27 05:46:09;;;;;;;;;;;5.20;58.20;;;;;;4343777;33;20056;-47
2021/11/27 05:48:36;;;;;;;;;;;5.20;58.10;;;;;;4343739;33;19978;-47
2021/11/27 05:51:02;;;;;;;;;;;5.20;57.90;;;;;;4343786;33;20041;-47
2021/11/27 05:53:28;;;;;;;;;;;5.30;58.00;;;;;;4343435;33;19963;-48
2021/11/27 05:55:55;;;;;;;;;;;5.30;57.90;;;;;;4343762;32;19975;-47
2021/11/27 05:58:21;;;;;;;;;;;5.30;57.80;;;;;;4343782;32;19974;-49
2021/11/27 06:00:47;;;;;;;;;;;5.30;57.80;;;;;;4343397;33;20410;-46
2021/11/27 06:03:13;;;;;;;;;;;5.40;57.90;;;;;;4329761;33;20110;-50
2021/11/27 06:05:40;;;;;;;;;;;5.40;57.70;;;;;;4329829;33;20387;-49
2021/11/27 06:08:06;;;;;;;;;;;5.40;57.70;;;;;;4343305;33;19975;-47
2021/11/27 06:10:33;;;;;;;;;;;5.40;57.70;;;;;;4330060;33;20064;-46
2021/11/27 06:12:59;;;;;;;;;;;5.40;57.70;;;;;;4343885;33;19975;-49
2021/11/27 06:15:26;;;;;;;;;;;5.40;57.60;;;;;;4343519;33;19971;-46
2021/11/27 06:17:53;;;;;;;;;;;5.40;57.80;;;;;;4329835;33;20100;-50
2021/11/27 06:20:20;;;;;;;;;;;5.40;57.90;;;;;;4355988;32;19975;-51
2021/11/27 06:22:46;;;;;;;;;;;5.40;58.00;;;;;;4373557;32;19970;-49
2021/11/27 06:25:12;;;;;;;;;;;5.40;58.00;;;;;;4373206;32;20025;-47
2021/11/27 06:27:39;;;;;;;;;;;5.40;58.10;;;;;;4373062;32;20379;-49
2021/11/27 06:30:06;;;;;;;;;;;5.40;58.30;;;;;;4372633;32;20518;-46
2021/11/27 06:32:32;;;;;;;;;;;5.40;58.10;;;;;;4359134;32;20006;-50
2021/11/27 06:34:59;;;;;;;;;;;5.50;58.10;;;;;;4359046;32;19985;-47
2021/11/27 06:37:25;;;;;;;;;;;5.50;58.10;;;;;;4372788;32;19998;-49
2021/11/27 06:39:51;;;;;;;;;;;5.50;58.10;;;;;;4373128;32;19969;-49
2021/11/27 06:42:18;;;;;;;;;;;5.50;58.10;;;;;;4373165;32;19990;-46
2021/11/27 06:44:47;;;;;;;;;;;5.60;58.10;;;;;;4373225;32;19962;-47
2021/11/27 06:47:17;;;;;;;;;;;5.60;58.10;;;;;;4359266;32;20382;-45
2021/11/27 06:49:43;;;;;;;;;;;5.60;58.00;;;;;;4359302;32;19966;-41
2021/11/27 06:52:10;;;;;;;;;;;5.70;58.10;;;;;;4373448;32;19989;-48
2021/11/27 06:54:37;;;;;;;;;;;5.70;57.90;;;;;;4373596;32;19986;-48
2021/11/27 06:57:03;;;;;;;;;;;5.80;57.80;;;;;;4359050;32;20008;-47
2021/11/27 06:59:29;;;;;;;;;;;5.80;57.70;;;;;;4373142;32;19978;-47
2021/11/27 07:01:56;;;;;;;;;;;5.90;57.70;;;;;;4358772;32;19974;-49
2021/11/27 07:04:22;;;;;;;;;;;5.90;57.70;;;;;;4359087;32;19966;-47
2021/11/27 07:06:49;;;;;;;;;;;5.90;57.60;;;;;;4372832;32;19999;-46
2021/11/27 07:09:15;;;;;;;;;;;6.00;57.60;;;;;;4372536;32;20479;-45
2021/11/27 07:11:42;;;;;;;;;;;6.10;57.40;;;;;;4372477;32;20133;-50
2021/11/27 07:14:08;;;;;;;;;;;6.10;57.40;;;;;;4372955;32;19990;-49
2021/11/27 07:16:34;;;;;;;;;;;6.10;57.50;;;;;;4372864;32;20479;-48
2021/11/27 07:19:00;;;;;;;;;;;6.10;57.20;;;;;;4373000;32;19974;-46
2021/11/27 07:21:26;;;;;;;;;;;6.20;57.20;;;;;;4359007;32;20067;-41
2021/11/27 07:23:53;;;;;;;;;;;6.20;57.10;;;;;;4357617;32;20016;-48
2021/11/27 07:26:19;;;;;;;;;;;6.20;57.20;;;;;;4357780;32;19974;-49
2021/11/27 07:28:46;;;;;;;;;;;6.20;57.00;;;;;;4357931;32;20053;-48
2021/11/27 07:31:12;;;;;;;;;;;6.30;56.90;;;;;;4358215;32;19978;-45
2021/11/27 07:33:38;;;;;;;;;;;6.30;57.00;;;;;;4357274;32;20371;-47
2021/11/27 07:36:05;;;;;;;;;;;6.30;57.00;;;;;;4325257;33;19978;-47
2021/11/27 07:38:32;;;;;;;;;;;6.30;56.90;;;;;;4325319;33;20388;-46
2021/11/27 07:40:58;;;;;;;;;;;6.40;56.80;;;;;;4326194;33;19994;-46
2021/11/27 07:43:24;;;;;;;;;;;6.30;56.70;;;;;;4327841;33;19987;-49
2021/11/27 07:45:51;;;;;;;;;;;6.40;56.70;;;;;;4328235;33;20023;-42
2021/11/27 07:48:17;;;;;;;;;;;6.40;56.60;;;;;;4328417;33;19971;-43
2021/11/27 07:50:43;;;;;;;;;;;6.40;56.50;;;;;;4328076;33;19974;-45
2021/11/27 07:53:09;;;;;;;;;;;6.40;56.50;;;;;;4327948;33;19963;-48
2021/11/27 07:55:36;;;;;;;;;;;6.40;56.60;;;;;;4327959;33;20469;-47
2021/11/27 07:58:02;;;;;;;;;;;6.50;56.60;;;;;;4328247;33;19997;-46
2021/11/27 08:00:28;;;;;;;;;;;6.50;56.30;;;;;;4327498;33;20399;-46
2021/11/27 08:02:54;;;;;;;;;;;6.50;56.00;;;;;;4327813;33;20427;-44
2021/11/27 08:05:21;;;;;;;;;;;6.60;56.10;;;;;;4328428;33;20062;-43
2021/11/27 08:07:47;;;;;;;;;;;6.60;56.10;;;;;;4352926;32;20395;-40
2021/11/27 08:10:14;;;;;;;;;;;6.60;56.10;;;;;;4359871;32;19970;-48
2021/11/27 08:12:40;;;;;;;;;;;6.60;55.90;;;;;;4359983;32;20074;-48
2021/11/27 08:15:07;;;;;;;;;;;6.70;56.00;;;;;;4359872;32;20046;-49
2021/11/27 08:17:35;;;;;;;;;;;6.70;55.90;;;;;;4360203;32;20042;-45
2021/11/27 08:20:05;;;;;;;;;;;6.80;55.80;;;;;;4364020;32;19970;-47
2021/11/27 08:22:31;;;;;;;;;;;6.90;55.60;;;;;;4374989;32;19970;-47
2021/11/27 08:24:57;;;;;;;;;;;6.90;55.40;;;;;;4374665;32;20046;-50
2021/11/27 08:27:27;;;;;;;;;;;7.00;55.30;;;;;;4374431;32;20005;-46
2021/11/27 08:29:56;;;;;;;;;;;7.00;55.10;;;;;;4374638;32;19962;-48
2021/11/27 08:32:22;;;;;;;;;;;7.10;55.00;;;;;;4360388;32;20623;-48
2021/11/27 08:34:49;;;;;;;;;;;7.10;54.90;;;;;;4374515;32;20383;-39
2021/11/27 08:37:15;;;;;;;;;;;7.10;54.70;;;;;;4360327;32;19958;-49
2021/11/27 08:39:41;;;;;;;;;;;7.10;54.60;;;;;;4374698;32;20047;-49
2021/11/27 08:42:08;;;;;;;;;;;7.10;54.50;;;;;;4360199;32;20114;-48
2021/11/27 08:44:34;;;;;;;;;;;7.20;54.40;;;;;;4373889;32;20001;-46
2021/11/27 08:47:00;;;;;;;;;;;7.20;54.10;;;;;;4374502;32;20004;-47
2021/11/27 08:49:26;;;;;;;;;;;7.20;54.00;;;;;;4374576;32;19967;-48
2021/11/27 08:51:52;;;;;;;;;;;7.10;53.80;;;;;;4326691;33;20022;-48
2021/11/27 08:54:19;;;;;;;;;;;7.10;53.90;;;;;;4297747;33;20563;-45
2021/11/27 08:56:45;;;;;;;;;;;7.10;54.10;;;;;;4297752;33;19990;-45
2021/11/27 08:59:11;;;;;;;;;;;7.10;53.90;;;;;;4282891;33;20034;-47
2021/11/27 09:01:41;;;;;;;;;;;7.10;53.90;;;;;;4283263;33;19995;-49
2021/11/27 09:04:07;;;;;;;;;;;7.10;53.80;;;;;;4283532;33;19976;-47
2021/11/27 09:06:33;;;;;;;;;;;7.00;53.80;;;;;;4283208;33;20007;-50
2021/11/27 09:08:59;;;;;;;;;;;7.00;54.00;;;;;;4283452;33;19999;-45
2021/11/27 09:11:28;;;;;;;;;;;7.00;54.80;;;;;;4254721;33;20454;-45
2021/11/27 09:13:54;;;;;;;;;;;6.90;54.00;;;;;;4254836;33;20014;-49
2021/11/27 09:16:20;;;;;;;;;;;6.90;54.20;;;;;;4254173;33;20071;-45
2021/11/27 09:18:46;;;;;;;;;;;6.90;54.20;;;;;;4254683;33;20056;-47
2021/11/27 09:21:13;;;;;;;;;;;6.90;54.20;;;;;;4253792;33;20548;-45
2021/11/27 09:23:39;;;;;;;;;;;6.80;54.20;;;;;;4266460;33;19969;-45
2021/11/27 09:26:05;;;;;;;;;;;6.80;54.40;;;;;;4280261;33;19968;-45
2021/11/27 09:28:33;;;;;;;;;;;6.80;54.60;;;;;;4283196;33;19969;-46
2021/11/27 09:31:01;;;;;;;;;;;6.80;54.70;;;;;;4318854;33;20420;-45
2021/11/27 09:33:29;;;;;;;;;;;6.80;54.60;;;;;;4326761;33;20045;-45
2021/11/27 09:36:02;;;;;;;;;;;6.90;54.70;;;;;;4311310;33;20451;-42
2021/11/27 09:38:28;;;;;;;;;;;6.80;54.40;;;;;;4311989;33;19979;-42
2021/11/27 09:41:12;;;;;;;;;;;6.80;54.30;;;;;;4299757;33;20054;-45
2021/11/27 09:43:38;;;;;;;;;;;6.70;54.40;;;;;;4314200;33;20066;-44
2021/11/27 09:46:04;;;;;;;;;;;6.70;54.70;;;;;;4314428;33;19973;-52
2021/11/27 09:48:30;;;;;;;;;;;6.70;54.80;;;;;;4326459;33;19986;-44
2021/11/27 09:50:57;;;;;;;;;;;6.60;54.70;;;;;;4314354;33;19971;-41
2021/11/27 09:53:23;;;;;;;;;;;6.60;54.80;;;;;;4326759;33;20013;-40
2021/11/27 09:55:49;;;;;;;;;;;6.60;54.80;;;;;;4314154;33;20380;-44
2021/11/27 09:58:16;;;;;;;;;;;6.60;54.90;;;;;;4311567;33;20088;-45
2021/11/27 10:00:42;;;;;;;;;;;6.60;54.90;;;;;;4299692;33;19968;-45
2021/11/27 10:03:08;;;;;;;;;;;6.60;54.70;;;;;;4310817;33;20511;-44
2021/11/27 10:05:34;;;;;;;;;;;6.50;54.80;;;;;;4311531;33;20009;-44
2021/11/27 10:08:01;;;;;;;;;;;6.50;54.90;;;;;;4311891;33;19983;-45
2021/11/27 10:10:27;;;;;;;;;;;6.50;55.00;;;;;;4311614;33;19978;-45
2021/11/27 10:12:53;;;;;;;;;;;6.40;54.90;;;;;;4311546;33;19971;-45
2021/11/27 10:15:19;;;;;;;;;;;6.40;55.00;;;;;;4287329;33;20018;-47
2021/11/27 10:17:45;;;;;;;;;;;6.40;55.20;;;;;;4311784;33;19967;-47
2021/11/27 10:20:12;;;;;;;;;;;6.40;55.20;;;;;;4322354;33;20442;-45
2021/11/27 10:22:38;;;;;;;;;;;6.40;55.90;;;;;;4341393;33;20096;-43
2021/11/27 10:25:31;;;;;;;;;;;6.40;55.10;;;;;;4340639;33;19963;-45
2021/11/27 10:28:15;;;;;;;;;;;6.40;55.20;;;;;;4340953;33;20002;-43
2021/11/27 10:30:58;;;;;;;;;;;6.40;55.20;;;;;;4341266;33;20061;-46
2021/11/27 10:33:24;;;;;;;;;;;6.30;55.30;;;;;;4341074;33;19975;-43
2021/11/27 10:36:02;;;;;;;;;;;6.30;55.40;;;;;;4358438;32;20422;-45
2021/11/27 10:38:42;;;;;;;;;;;6.20;55.50;;;;;;4372858;32;20070;-46
2021/11/27 10:41:10;;;;;;;;;;;6.20;55.60;;;;;;4372993;32;19958;-45
2021/11/27 10:43:36;;;;;;;;;;;6.10;55.70;;;;;;4372771;32;20131;-44
2021/11/27 10:46:03;;;;;;;;;;;6.10;55.80;;;;;;4359096;32;19965;-48
2021/11/27 10:48:29;;;;;;;;;;;6.00;56.00;;;;;;4373095;32;20047;-44
2021/11/27 10:50:59;;;;;;;;;;;6.10;56.30;;;;;;4373175;32;19984;-46
2021/11/27 10:53:31;;;;;;;;;;;6.10;56.50;;;;;;4373493;32;19978;-44
2021/11/27 10:56:11;;;;;;;;;;;6.00;56.60;;;;;;4372850;32;19970;-44
2021/11/27 10:58:56;;;;;;;;;;;6.00;56.80;;;;;;4372432;32;19986;-41
2021/11/27 11:01:23;;;;;;;;;;;5.90;57.00;;;;;;4373200;32;20037;-46
2021/11/27 11:03:49;;;;;;;;;;;5.90;57.20;;;;;;4373106;32;19985;-44
2021/11/27 11:06:20;;;;;;;;;;;5.90;57.30;;;;;;4372416;32;19981;-43
2021/11/27 11:08:48;;;;;;;;;;;5.90;57.30;;;;;;4372650;32;20343;-46
2021/11/27 11:11:20;;;;;;;;;;;6.00;57.30;;;;;;4358668;32;19974;-45
2021/11/27 11:13:52;;;;;;;;;;;6.00;57.20;;;;;;4372825;32;19981;-44
2021/11/27 11:16:19;;;;;;;;;;;6.00;57.20;;;;;;4374827;32;19993;-40
2021/11/27 11:18:48;;;;;;;;;;;6.00;57.10;;;;;;4376156;32;19966;-45
2021/11/27 11:21:14;;;;;;;;;;;6.00;57.00;;;;;;4363643;32;19963;-46
2021/11/27 11:23:43;;;;;;;;;;;6.00;56.90;;;;;;4361181;32;19977;-45
2021/11/27 11:26:17;;;;;;;;;;;6.00;57.00;;;;;;4360721;32;20068;-43
2021/11/27 11:28:49;;;;;;;;;;;6.00;56.90;;;;;;4360861;32;19971;-46
2021/11/27 11:31:23;;;;;;;;;;;6.00;56.80;;;;;;4347045;32;20383;-45
2021/11/27 11:33:51;;;;;;;;;;;6.00;56.90;;;;;;4360433;32;20058;-45
2021/11/27 11:36:18;;;;;;;;;;;6.00;56.90;;;;;;4360578;32;19974;-46
2021/11/27 11:38:49;;;;;;;;;;;6.00;56.80;;;;;;4360535;32;20488;-48
2021/11/27 11:41:16;;;;;;;;;;;6.00;56.70;;;;;;4359982;32;19968;-45
2021/11/27 11:43:43;;;;;;;;;;;6.00;56.60;;;;;;4360603;32;19966;-44
2021/11/27 11:46:09;;;;;;;;;;;6.00;56.60;;;;;;4360405;32;20388;-45
2021/11/27 11:48:36;;;;;;;;;;;6.00;56.50;;;;;;4359881;32;19990;-45
2021/11/27 11:51:41;;;;;;;;;;;6.00;56.40;;;;;;4346043;32;19970;-44
2021/11/27 11:54:08;;;;;;;;;;;6.00;57.10;;;;;;4357650;32;19974;-45
2021/11/27 11:56:37;;;;;;;;;;;6.00;56.50;;;;;;4360367;32;20064;-44
2021/11/27 11:59:20;;;;;;;;;;;6.00;56.50;;;;;;4359974;32;20426;-46
2021/11/27 12:02:14;;;;;;;;;;;5.90;56.40;;;;;;4359747;32;19993;-45
2021/11/27 12:05:09;;;;;;;;;;;5.90;56.40;;;;;;4360003;32;20109;-47
2021/11/27 12:07:44;;;;;;;;;;;5.90;56.50;;;;;;4359684;32;20375;-49
2021/11/27 12:10:34;;;;;;;;;;;5.90;56.60;;;;;;4360041;32;19970;-48
2021/11/27 12:13:24;;;;;;;;;;;5.90;56.50;;;;;;4353667;32;19978;-39
2021/11/27 12:16:04;;;;;;;;;;;5.90;56.40;;;;;;4352930;32;20029;-46
2021/11/27 12:18:30;;;;;;;;;;;5.90;56.20;;;;;;4360045;32;19958;-43
2021/11/27 12:20:58;;;;;;;;;;;5.90;56.20;;;;;;4369692;32;20030;-45
2021/11/27 12:23:28;;;;;;;;;;;5.90;56.00;;;;;;4374419;32;19990;-48
2021/11/27 12:26:07;;;;;;;;;;;5.90;55.90;;;;;;4375202;32;19965;-45
2021/11/27 12:28:37;;;;;;;;;;;5.90;55.90;;;;;;4360157;32;20041;-46
2021/11/27 12:31:22;;;;;;;;;;;5.80;55.70;;;;;;4360725;32;19970;-50
2021/11/27 12:34:04;;;;;;;;;;;5.80;55.70;;;;;;4374787;32;20070;-50
2021/11/27 12:36:32;;;;;;;;;;;5.80;55.70;;;;;;4374863;32;20119;-47
2021/11/27 12:39:16;;;;;;;;;;;5.70;55.60;;;;;;4374368;32;19978;-47
2021/11/27 12:41:47;;;;;;;;;;;5.80;55.80;;;;;;4373996;32;20067;-43
2021/11/27 12:44:35;;;;;;;;;;;5.70;55.80;;;;;;4373586;32;19963;-50
2021/11/27 12:47:31;;;;;;;;;;;5.70;55.90;;;;;;4360725;32;20037;-48
2021/11/27 12:49:59;;;;;;;;;;;5.70;55.90;;;;;;4298179;33;19964;-48
2021/11/27 12:52:32;;;;;;;;;;;5.70;55.90;;;;;;4298114;33;19971;-48
2021/11/27 12:55:18;;;;;;;;;;;5.70;56.00;;;;;;4298296;33;20050;-53
2021/11/27 12:57:50;;;;;;;;;;;5.60;55.70;;;;;;4288133;33;19975;-50
2021/11/27 13:00:22;;;;;;;;;;;5.50;55.50;;;;;;4297445;33;20527;-51
2021/11/27 13:03:01;;;;;;;;;;;5.50;55.50;;;;;;4297801;33;19983;-49
2021/11/27 13:05:37;;;;;;;;;;;5.40;55.40;;;;;;4298090;33;20055;-50
2021/11/27 13:08:05;;;;;;;;;;;5.40;55.40;;;;;;4297987;33;20051;-49
2021/11/27 13:10:32;;;;;;;;;;;5.30;55.40;;;;;;4297852;33;20476;-48
2021/11/27 13:13:19;;;;;;;;;;;5.20;55.30;;;;;;4285737;33;20365;-49
2021/11/27 13:15:47;;;;;;;;;;;5.20;55.00;;;;;;4297934;33;20047;-49
2021/11/27 13:18:17;;;;;;;;;;;5.20;54.70;;;;;;4285716;33;19999;-49
2021/11/27 13:20:58;;;;;;;;;;;5.20;54.40;;;;;;4277175;33;20117;-48
2021/11/27 13:23:32;;;;;;;;;;;5.10;53.80;;;;;;4283253;33;20579;-50
2021/11/27 13:26:03;;;;;;;;;;;5.00;53.30;;;;;;4309060;32;19990;-49
2021/11/27 13:28:31;;;;;;;;;;;5.00;53.30;;;;;;4345129;32;19968;-48
2021/11/27 13:30:59;;;;;;;;;;;4.90;53.30;;;;;;4358556;32;19969;-45
2021/11/27 13:33:29;;;;;;;;;;;4.90;53.10;;;;;;4358363;32;20421;-50
2021/11/27 13:35:56;;;;;;;;;;;4.80;53.00;;;;;;4344834;32;20006;-49
2021/11/27 13:38:27;;;;;;;;;;;4.80;53.10;;;;;;4357619;32;19981;-50
2021/11/27 13:40:53;;;;;;;;;;;4.80;53.00;;;;;;4358561;32;19983;-52
2021/11/27 13:43:19;;;;;;;;;;;4.70;53.00;;;;;;4358303;32;19978;-50
2021/11/27 13:45:45;;;;;;;;;;;4.60;53.10;;;;;;4358824;32;19998;-49
2021/11/27 13:48:11;;;;;;;;;;;4.50;53.20;;;;;;4358928;32;20401;-49
2021/11/27 13:50:43;;;;;;;;;;;4.50;53.30;;;;;;4359500;32;19969;-52
2021/11/27 13:53:09;;;;;;;;;;;4.50;53.40;;;;;;4358141;32;19958;-51
2021/11/27 13:55:50;;;;;;;;;;;4.40;53.50;;;;;;4344910;32;19958;-45
2021/11/27 13:58:18;;;;;;;;;;;4.40;53.40;;;;;;4358393;32;19954;-45
2021/11/27 14:00:44;;;;;;;;;;;4.30;53.30;;;;;;4358271;32;20047;-44
2021/11/27 14:03:15;;;;;;;;;;;4.20;53.40;;;;;;4344418;32;20417;-44
2021/11/27 14:05:48;;;;;;;;;;;4.20;53.40;;;;;;4358321;32;19978;-46
2021/11/27 14:08:19;;;;;;;;;;;4.20;53.30;;;;;;4358151;32;19973;-45
2021/11/27 14:11:09;;;;;;;;;;;4.20;53.10;;;;;;4358621;32;19962;-45
2021/11/27 14:13:56;;;;;;;;;;;4.20;52.90;;;;;;4358113;32;20078;-46
2021/11/27 14:16:24;;;;;;;;;;;4.10;52.50;;;;;;4358044;32;19963;-47
2021/11/27 14:18:50;;;;;;;;;;;4.10;52.50;;;;;;4358429;32;20055;-45
2021/11/27 14:21:18;;;;;;;;;;;4.00;52.30;;;;;;4331809;33;20436;-44
2021/11/27 14:23:49;;;;;;;;;;;4.00;52.10;;;;;;4343334;32;19974;-45
2021/11/27 14:26:18;;;;;;;;;;;3.90;51.80;;;;;;4329755;33;20052;-44
2021/11/27 14:28:55;;;;;;;;;;;3.90;51.60;;;;;;4343093;33;19986;-45
2021/11/27 14:31:35;;;;;;;;;;;3.90;51.60;;;;;;4343116;33;20720;-45
2021/11/27 14:34:08;;;;;;;;;;;3.80;51.20;;;;;;4343272;32;19975;-44
2021/11/27 14:36:37;;;;;;;;;;;3.80;51.10;;;;;;4342746;32;19986;-45
2021/11/27 14:39:22;;;;;;;;;;;3.80;50.90;;;;;;4343266;33;19978;-44
2021/11/27 14:41:48;;;;;;;;;;;3.70;50.70;;;;;;4330410;33;20070;-44